Time;durP1;ratioP1;P1;durP2;ratioP2;P2;SDS_P1;SDS_P2;PMS_P1;PMS_P2;Temp;Humidity;BMP_temperature;BMP_pressure;BME280_temperature;BME280_humidity;BME280_pressure;Samples;Min_cycle;Max_cycle;Signal;HPM_P1;HPM_P2
2022/03/02 00:01:37;;;;;;;34.15;16.98;;;;;;;2.37;48.95;94256.41;5022578;28;20025;-70
2022/03/02 00:04:03;;;;;;;32.75;15.85;;;;;;;2.37;48.42;94258.25;5019368;28;20049;-73
2022/03/02 00:06:28;;;;;;;30.20;14.60;;;;;;;2.58;47.68;94259.97;5021070;28;20037;-73
2022/03/02 00:08:54;;;;;;;28.65;15.30;;;;;;;2.53;47.66;94257.31;5019063;28;20499;-71
2022/03/02 00:11:19;;;;;;;25.63;14.40;;;;;;;2.50;47.63;94250.72;5017262;28;20109;-71
2022/03/02 00:13:45;;;;;;;27.35;15.73;;;;;;;2.20;48.48;94228.72;5028315;28;20027;-74
2022/03/02 00:16:11;;;;;;;26.35;15.18;;;;;;;2.27;48.35;94231.91;5023626;28;20041;-75
2022/03/02 00:18:37;;;;;;;29.77;15.48;;;;;;;2.20;48.02;94228.72;5014681;28;20065;-76
2022/03/02 00:21:03;;;;;;;27.75;15.40;;;;;;;2.14;48.65;94248.88;5027982;28;20121;-77
2022/03/02 00:23:29;;;;;;;28.58;15.10;;;;;;;1.96;49.06;94218.53;5022785;28;20407;-76
2022/03/02 00:25:55;;;;;;;30.00;15.40;;;;;;;1.94;48.94;94222.47;5027580;28;20029;-77
2022/03/02 00:28:20;;;;;;;27.30;15.68;;;;;;;2.22;48.70;94227.41;5019419;28;20068;-77
2022/03/02 00:30:46;;;;;;;31.48;18.73;;;;;;;2.25;48.61;94229.56;5023678;28;20037;-75
2022/03/02 00:33:11;;;;;;;40.35;17.33;;;;;;;2.21;48.48;94235.53;5017872;28;20667;-75
2022/03/02 00:35:37;;;;;;;29.58;16.05;;;;;;;2.12;48.09;94210.78;5021611;28;20391;-76
2022/03/02 00:38:04;;;;;;;36.33;17.60;;;;;;;1.87;48.48;94193.81;5021283;28;20037;-76
2022/03/02 00:40:30;;;;;;;28.08;16.90;;;;;;;1.75;48.90;94213.34;5016841;28;20530;-74
2022/03/02 00:42:56;;;;;;;28.95;14.65;;;;;;;1.63;48.86;94209.03;5027745;28;20036;-75
2022/03/02 00:45:22;;;;;;;26.98;15.30;;;;;;;1.60;48.98;94212.16;5015360;28;20045;-76
2022/03/02 00:47:48;;;;;;;40.17;17.73;;;;;;;1.47;49.33;94201.28;5029306;28;20045;-75
2022/03/02 00:50:15;;;;;;;31.30;15.43;;;;;;;1.68;49.03;94210.91;5015351;28;20094;-77
2022/03/02 00:52:41;;;;;;;29.58;14.52;;;;;;;1.56;48.72;94205.81;5024714;28;20091;-75
2022/03/02 00:55:06;;;;;;;27.75;14.65;;;;;;;1.64;48.36;94197.50;5022441;28;20565;-76
2022/03/02 00:57:32;;;;;;;25.00;13.68;;;;;;;1.62;47.68;94198.78;5013313;28;20032;-76
2022/03/02 00:59:58;;;;;;;26.67;13.13;;;;;;;1.71;47.63;94191.28;5019325;28;20607;-76
2022/03/02 01:02:28;;;;;;;24.83;12.38;;;;;;;1.76;47.12;94193.94;5024937;28;20539;-74
2022/03/02 01:04:53;;;;;;;19.23;11.20;;;;;;;1.76;46.83;94193.94;5018810;28;20777;-76
2022/03/02 01:07:19;;;;;;;17.20;10.32;;;;;;;1.62;46.17;94172.56;5025774;28;20044;-76
2022/03/02 01:09:45;;;;;;;19.75;10.73;;;;;;;1.54;46.28;94168.56;5022509;28;20864;-75
2022/03/02 01:12:10;;;;;;;20.58;9.52;;;;;;;1.57;46.21;94167.31;5027243;28;20086;-78
2022/03/02 01:14:35;;;;;;;14.77;9.02;;;;;;;1.64;45.88;94179.16;5025035;28;20626;-75
2022/03/02 01:17:01;;;;;;;17.88;9.90;;;;;;;1.59;45.88;94181.72;5029592;28;20048;-77
2022/03/02 01:19:27;;;;;;;14.13;8.23;;;;;;;1.53;45.73;94166.97;5019254;28;20037;-77
2022/03/02 01:21:52;;;;;;;13.48;8.85;;;;;;;1.52;45.41;94144.41;5022807;28;20493;-76
2022/03/02 01:24:18;;;;;;;13.05;8.20;;;;;;;1.33;45.36;94158.13;5022968;28;20095;-77
2022/03/02 01:26:44;;;;;;;11.65;7.72;;;;;;;1.36;45.44;94155.03;5028060;28;20046;-76
2022/03/02 01:29:10;;;;;;;12.73;7.70;;;;;;;1.39;45.51;94157.13;5026277;28;20372;-76
2022/03/02 01:31:35;;;;;;;10.18;7.10;;;;;;;1.43;45.49;94166.09;5021651;28;20104;-77
2022/03/02 01:34:00;;;;;;;11.68;7.07;;;;;;;1.40;45.19;94161.34;5026411;28;20526;-76
2022/03/02 01:36:26;;;;;;;9.43;5.82;;;;;;;1.36;45.37;94166.31;5022084;28;20033;-76
2022/03/02 01:38:54;;;;;;;12.77;7.40;;;;;;;1.50;44.95;94164.88;5026942;28;20663;-76
2022/03/02 01:41:22;;;;;;;11.50;6.35;;;;;;;1.30;45.21;94146.31;5025254;28;20044;-76
2022/03/02 01:43:49;;;;;;;11.13;7.47;;;;;;;1.32;45.27;94159.97;5024398;28;20136;-77
2022/03/02 01:46:17;;;;;;;9.52;6.53;;;;;;;1.36;45.25;94155.81;5028296;28;20037;-74
2022/03/02 01:48:44;;;;;;;7.57;5.82;;;;;;;1.38;45.09;94151.09;5029739;28;20084;-75
2022/03/02 01:51:10;;;;;;;8.45;5.57;;;;;;;1.38;44.82;94148.47;5020199;28;20033;-77
2022/03/02 01:53:37;;;;;;;10.32;6.18;;;;;;;1.50;44.88;94150.97;5029304;28;20045;-75
2022/03/02 01:56:03;;;;;;;11.05;6.22;;;;;;;1.53;44.41;94142.59;5027775;28;20017;-74
2022/03/02 01:58:29;;;;;;;10.52;7.55;;;;;;;1.45;44.35;94133.38;5041053;28;20029;-75
2022/03/02 02:00:56;;;;;;;11.18;7.10;;;;;;;1.22;44.13;94113.50;5025385;28;20499;-74
2022/03/02 02:03:21;;;;;;;7.18;5.20;;;;;;;1.15;44.21;94106.88;5027486;28;20101;-74
2022/03/02 02:05:47;;;;;;;10.20;6.07;;;;;;;1.17;44.55;94123.13;5022757;28;20101;-75
2022/03/02 02:08:13;;;;;;;7.72;5.75;;;;;;;1.09;44.91;94128.78;5032782;28;20037;-77
2022/03/02 02:10:38;;;;;;;8.93;5.60;;;;;;;1.11;44.70;94121.50;5024580;28;20033;-77
2022/03/02 02:13:04;;;;;;;9.15;5.95;;;;;;;1.01;45.01;94127.41;5026065;28;20037;-76
2022/03/02 02:15:30;;;;;;;6.38;4.93;;;;;;;1.04;44.83;94139.22;5029223;28;20067;-76
2022/03/02 02:17:56;;;;;;;8.45;5.90;;;;;;;0.96;45.04;94118.72;5027807;28;20045;-74
2022/03/02 02:20:23;;;;;;;6.68;5.20;;;;;;;1.14;44.82;94127.03;5015831;28;20044;-76
2022/03/02 02:22:49;;;;;;;8.35;5.38;;;;;;;0.95;44.76;94107.44;5032548;28;20375;-76
2022/03/02 02:25:15;;;;;;;8.73;4.65;;;;;;;1.08;44.63;94133.25;5021344;28;20495;-74
2022/03/02 02:27:44;;;;;;;10.57;5.65;;;;;;;1.05;44.26;94133.75;5030256;28;20044;-75
2022/03/02 02:30:11;;;;;;;6.07;4.45;;;;;;;0.87;44.64;94109.72;5018250;28;20060;-76
2022/03/02 02:32:37;;;;;;;6.72;4.85;;;;;;;0.93;44.86;94129.69;5022639;28;20047;-76
2022/03/02 02:35:03;;;;;;;10.00;5.13;;;;;;;0.96;44.84;94118.72;5029266;28;20026;-76
2022/03/02 02:37:29;;;;;;;6.45;4.07;;;;;;;1.05;44.36;94119.84;5024795;28;20069;-75
2022/03/02 02:40:06;;;;;;;9.25;6.22;;;;;;;1.10;43.90;94115.47;5025003;28;20128;-75
2022/03/02 02:42:31;;;;;;;7.28;5.07;;;;;;;1.12;43.80;94117.84;5028323;28;20192;-76
2022/03/02 02:44:57;;;;;;;11.85;6.43;;;;;;;0.83;44.13;94109.41;5025181;28;20606;-74
2022/03/02 02:47:22;;;;;;;5.88;4.47;;;;;;;0.80;44.40;94125.59;5025490;28;20474;-74
2022/03/02 02:49:48;;;;;;;5.68;3.90;;;;;;;0.67;44.30;94116.31;5025639;28;21520;-72
2022/03/02 02:52:16;;;;;;;12.30;7.47;;;;;;;0.63;44.71;94117.84;5022958;28;20462;-72
2022/03/02 02:54:42;;;;;;;8.27;4.95;;;;;;;0.80;44.34;94126.41;5031966;28;20055;-75
2022/03/02 02:57:08;;;;;;;8.30;4.85;;;;;;;0.76;44.35;94124.50;5025314;28;20043;-76
2022/03/02 02:59:35;;;;;;;6.20;4.63;;;;;;;0.69;44.65;94124.69;5025809;28;20040;-76
2022/03/02 03:02:01;;;;;;;6.80;5.63;;;;;;;0.69;44.63;94123.94;5019075;28;20032;-73
2022/03/02 03:04:26;;;;;;;8.52;5.35;;;;;;;0.73;44.50;94125.81;5025741;28;20041;-76
2022/03/02 03:06:52;;;;;;;9.65;5.30;;;;;;;0.72;44.56;94124.22;5030729;28;20068;-75
2022/03/02 03:09:17;;;;;;;6.57;4.72;;;;;;;0.62;44.66;94123.31;5030656;28;20041;-75
2022/03/02 03:11:43;;;;;;;5.32;4.25;;;;;;;0.44;44.82;94110.53;5017943;28;20490;-75
2022/03/02 03:14:10;;;;;;;5.72;4.78;;;;;;;0.53;44.97;94120.31;5025388;28;20039;-75
2022/03/02 03:16:36;;;;;;;7.63;5.15;;;;;;;0.10;45.32;94062.72;5015103;28;20009;-74
2022/03/02 03:19:01;;;;;;;10.45;4.88;;;;;;;0.50;45.13;94115.56;5026467;28;20039;-75
2022/03/02 03:21:27;;;;;;;9.02;5.35;;;;;;;0.34;45.46;94113.78;5021997;28;20507;-72
2022/03/02 03:23:52;;;;;;;5.03;4.07;;;;;;;0.08;46.15;94123.13;5041351;28;20048;-75
2022/03/02 03:26:17;;;;;;;6.22;5.10;;;;;;;0.15;45.90;94117.72;5028525;28;20040;-76
2022/03/02 03:28:43;;;;;;;7.78;5.75;;;;;;;0.05;46.15;94117.59;5027401;28;20128;-76
2022/03/02 03:31:08;;;;;;;6.90;4.05;;;;;;;0.07;46.27;94118.91;5022183;28;20045;-75
2022/03/02 03:33:34;;;;;;;8.15;5.32;;;;;;;-0.08;46.54;94103.78;5020428;28;20060;-76
2022/03/02 03:35:59;;;;;;;7.50;4.55;;;;;;;-0.09;46.69;94104.81;5025147;28;20033;-76
2022/03/02 03:38:25;;;;;;;7.60;4.20;;;;;;;-0.08;46.93;94119.47;5027316;28;20033;-72
2022/03/02 03:40:51;;;;;;;7.20;5.45;;;;;;;-0.12;47.42;94115.78;5031495;28;20481;-75
2022/03/02 03:43:18;;;;;;;11.57;4.47;;;;;;;-0.10;47.78;94116.34;5015702;28;20044;-73
2022/03/02 03:45:43;;;;;;;9.10;5.32;;;;;;;-0.23;48.12;94105.38;5023890;28;20613;-76
2022/03/02 03:48:09;;;;;;;6.88;5.28;;;;;;;-0.22;48.60;94097.31;5019086;28;20061;-75
2022/03/02 03:50:35;;;;;;;7.07;5.32;;;;;;;-0.22;49.22;94110.38;5017264;28;20052;-75
2022/03/02 03:53:00;;;;;;;6.85;4.65;;;;;;;-0.20;49.70;94105.72;5019494;28;20147;-75
2022/03/02 03:55:26;;;;;;;5.80;4.20;;;;;;;-0.19;50.22;94112.50;5022169;28;20528;-75
2022/03/02 03:57:51;;;;;;;6.82;4.43;;;;;;;-0.41;50.61;94076.91;5025877;28;20499;-75
2022/03/02 04:00:19;;;;;;;6.10;4.65;;;;;;;-0.46;51.55;94106.34;5029138;28;20056;-76
2022/03/02 04:02:45;;;;;;;4.53;4.10;;;;;;;-0.39;51.34;94111.44;5021885;28;20593;-75
2022/03/02 04:05:11;;;;;;;10.32;5.28;;;;;;;-0.31;51.61;94103.97;5023205;28;20037;-75
2022/03/02 04:07:38;;;;;;;8.05;4.50;;;;;;;-0.76;52.17;94077.13;5020500;28;20486;-75
2022/03/02 04:10:05;;;;;;;10.68;5.43;;;;;;;-0.58;52.48;94101.19;5016837;28;20345;-75
2022/03/02 04:12:31;;;;;;;7.13;4.50;;;;;;;-0.38;52.26;94113.78;5028412;28;20106;-74
2022/03/02 04:14:56;;;;;;;10.55;5.85;;;;;;;-0.40;52.83;94115.84;5015867;28;20846;-75
2022/03/02 04:17:23;;;;;;;6.45;5.35;;;;;;;-0.40;52.13;94115.06;5026491;28;20024;-74
2022/03/02 04:19:48;;;;;;;8.02;5.68;;;;;;;-0.66;52.30;94077.28;5024433;28;20017;-75
2022/03/02 04:22:13;;;;;;;10.07;6.40;;;;;;;-0.58;52.80;94113.47;5025022;28;20057;-76
2022/03/02 04:24:39;;;;;;;7.32;4.95;;;;;;;-0.66;53.04;94095.56;5022328;28;20048;-75
2022/03/02 04:27:05;;;;;;;8.35;6.03;;;;;;;-0.68;53.30;94095.78;5022396;28;20187;-76
2022/03/02 04:29:31;;;;;;;9.80;6.80;;;;;;;-0.55;52.91;94097.31;5025635;28;20076;-73
2022/03/02 04:31:56;;;;;;;13.45;6.15;;;;;;;-0.35;52.73;94110.72;5019082;28;20995;-75
2022/03/02 04:34:22;;;;;;;7.57;5.60;;;;;;;-0.33;52.69;94105.22;5023286;28;20127;-76
2022/03/02 04:36:47;;;;;;;8.38;5.85;;;;;;;-0.40;52.70;94104.63;5015060;28;20045;-76
2022/03/02 04:39:12;;;;;;;10.98;6.45;;;;;;;-0.16;52.57;94112.06;5022891;28;20718;-75
2022/03/02 04:41:38;;;;;;;7.95;5.80;;;;;;;-0.02;52.69;94109.09;5019065;28;20061;-75
2022/03/02 04:44:04;;;;;;;11.52;4.93;;;;;;;-0.15;52.40;94082.28;5023752;28;20029;-76
2022/03/02 04:46:29;;;;;;;13.10;7.00;;;;;;;0.02;51.99;94076.19;5022431;28;20051;-75
2022/03/02 04:48:55;;;;;;;8.75;4.88;;;;;;;0.12;51.82;94102.50;5019990;28;20062;-75
2022/03/02 04:51:20;;;;;;;7.07;4.47;;;;;;;-0.13;52.20;94095.88;5025355;28;20065;-74
2022/03/02 04:53:46;;;;;;;5.65;4.53;;;;;;;-0.33;52.86;94074.66;5020206;28;20732;-76
2022/03/02 04:56:12;;;;;;;5.82;3.78;;;;;;;-0.45;53.09;94076.59;5029065;28;20156;-75
2022/03/02 04:58:37;;;;;;;5.45;4.32;;;;;;;-0.53;53.97;94100.47;5021141;28;20029;-75
2022/03/02 05:01:03;;;;;;;7.45;4.55;;;;;;;-0.66;54.74;94098.97;5018118;28;20041;-75
2022/03/02 05:03:28;;;;;;;6.72;4.28;;;;;;;-0.75;54.63;94076.88;5025779;28;20038;-75
2022/03/02 05:05:54;;;;;;;8.82;5.10;;;;;;;-0.72;54.83;94102.53;5018377;28;20060;-77
2022/03/02 05:08:19;;;;;;;7.13;4.55;;;;;;;-0.79;55.38;94085.44;5030803;28;20031;-74
2022/03/02 05:10:45;;;;;;;10.88;4.88;;;;;;;-0.73;55.46;94100.16;5023849;28;20044;-76
2022/03/02 05:13:10;;;;;;;6.10;4.82;;;;;;;-0.93;55.85;94073.72;5026126;28;20041;-74
2022/03/02 05:15:36;;;;;;;6.78;4.28;;;;;;;-0.75;55.78;94095.16;5039707;28;20040;-75
2022/03/02 05:18:02;;;;;;;5.20;4.68;;;;;;;-0.82;55.96;94075.44;5024271;28;20033;-72
2022/03/02 05:20:27;;;;;;;7.35;5.80;;;;;;;-0.75;56.04;94095.16;5023006;28;20057;-75
2022/03/02 05:22:53;;;;;;;13.40;7.38;;;;;;;-0.90;56.77;94099.34;5032565;28;20430;-76
2022/03/02 05:25:19;;;;;;;8.15;5.65;;;;;;;-0.87;57.08;94102.25;5024206;28;20132;-75
2022/03/02 05:27:46;;;;;;;14.90;8.40;;;;;;;-1.04;57.31;94072.72;5030297;28;20507;-76
2022/03/02 05:30:12;;;;;;;18.00;11.15;;;;;;;-0.69;57.08;94107.28;5021917;28;20041;-75
2022/03/02 05:32:38;;;;;;;26.52;13.18;;;;;;;-0.82;57.04;94101.56;5025455;28;20064;-75
2022/03/02 05:35:04;;;;;;;40.03;20.52;;;;;;;-0.82;57.17;94102.34;5025322;28;20908;-77
2022/03/02 05:37:30;;;;;;;29.25;16.30;;;;;;;-0.75;57.14;94104.81;5023392;28;20496;-75
2022/03/02 05:39:55;;;;;;;32.75;17.92;;;;;;;-0.74;57.10;94103.81;5024302;28;20041;-74
2022/03/02 05:42:21;;;;;;;26.63;14.82;;;;;;;-0.90;57.29;94083.66;5027404;28;20132;-76
2022/03/02 05:44:46;;;;;;;30.17;15.38;;;;;;;-0.95;57.50;94082.56;5044795;28;20492;-76
2022/03/02 05:47:12;;;;;;;16.70;10.90;;;;;;;-0.66;57.18;94104.19;5017976;28;20033;-75
2022/03/02 05:49:38;;;;;;;14.75;11.40;;;;;;;-0.65;57.76;94087.50;5029045;28;20040;-76
2022/03/02 05:52:04;;;;;;;11.68;7.63;;;;;;;-0.45;57.12;94097.50;5021518;28;20470;-75
2022/03/02 05:54:29;;;;;;;13.20;7.07;;;;;;;-0.38;56.55;94098.09;5021348;28;20045;-75
2022/03/02 05:56:56;;;;;;;10.40;6.40;;;;;;;-0.60;56.09;94074.53;5028618;28;20834;-75
2022/03/02 05:59:21;;;;;;;9.50;5.53;;;;;;;-0.45;55.96;94081.81;5026518;28;20037;-76
2022/03/02 06:01:47;;;;;;;7.22;5.05;;;;;;;-0.39;55.98;94086.09;5028661;28;20025;-75
2022/03/02 06:04:12;;;;;;;12.05;7.53;;;;;;;-0.13;55.75;94106.34;5019337;28;20523;-76
2022/03/02 06:06:38;;;;;;;11.27;7.53;;;;;;;-0.12;55.53;94107.94;5028783;28;20034;-73
2022/03/02 06:09:05;;;;;;;11.02;7.63;;;;;;;-0.17;55.69;94105.22;5031539;28;20041;-76
2022/03/02 06:11:31;;;;;;;14.18;7.85;;;;;;;-0.22;55.58;94097.31;5021636;28;20080;-73
2022/03/02 06:13:57;;;;;;;8.82;6.35;;;;;;;-0.14;55.41;94099.50;5024747;28;20489;-75
2022/03/02 06:16:23;;;;;;;10.90;6.45;;;;;;;-0.05;54.80;94097.31;5028428;28;20029;-75
2022/03/02 06:18:49;;;;;;;12.05;6.40;;;;;;;-0.11;54.78;94108.72;5026469;28;20103;-76
2022/03/02 06:21:17;;;;;;;11.25;5.93;;;;;;;-0.24;55.22;94109.06;5027014;28;20048;-76
2022/03/02 06:23:43;;;;;;;9.57;5.43;;;;;;;-0.13;55.52;94111.56;5025065;28;20033;-76
2022/03/02 06:26:09;;;;;;;9.38;5.63;;;;;;;-0.09;55.96;94112.66;5018518;28;20048;-75
2022/03/02 06:28:35;;;;;;;8.40;5.53;;;;;;;-0.23;55.91;94106.19;5022971;28;20029;-72
2022/03/02 06:31:00;;;;;;;8.85;6.78;;;;;;;-0.17;55.63;94091.38;5030609;28;20029;-71
2022/03/02 06:33:26;;;;;;;8.77;6.45;;;;;;;-0.13;55.89;94080.19;5019679;28;20041;-71
2022/03/02 06:35:52;;;;;;;9.00;5.70;;;;;;;0.01;55.69;94098.94;5026976;28;20045;-73
2022/03/02 06:38:18;;;;;;;10.05;6.40;;;;;;;-0.37;55.10;94031.75;5029097;28;20549;-70
2022/03/02 06:41:02;;;;;;;8.50;6.13;;;;;;;0.19;55.21;94097.91;5029100;28;20160;-71
2022/03/02 06:43:38;;;;;;;11.48;6.90;;;;;;;0.16;55.02;94091.31;5027996;28;20825;-74
2022/03/02 06:46:11;;;;;;;12.88;7.28;;;;;;;0.10;55.39;94092.28;5030317;28;20171;-72
2022/03/02 06:49:00;;;;;;;8.30;6.05;;;;;;;0.40;55.03;94089.25;5042394;28;20067;-74
2022/03/02 06:51:30;;;;;;;8.13;6.18;;;;;;;0.26;54.20;94067.91;5028636;28;20095;-71
2022/03/02 06:53:57;;;;;;;14.68;7.13;;;;;;;0.29;54.51;94066.63;5041349;28;20731;-70
2022/03/02 06:56:27;;;;;;;10.27;6.50;;;;;;;0.56;54.40;94083.19;5022278;28;20538;-71
2022/03/02 06:58:54;;;;;;;9.00;6.00;;;;;;;0.60;54.31;94089.50;5026905;28;20043;-71
2022/03/02 07:01:31;;;;;;;10.40;6.68;;;;;;;0.76;53.72;94080.78;5025095;28;20139;-71
2022/03/02 07:03:59;;;;;;;11.68;7.00;;;;;;;0.60;53.88;94078.25;5023308;28;20033;-71
2022/03/02 07:06:26;;;;;;;10.55;7.00;;;;;;;0.61;53.90;94064.13;5024928;28;20464;-70
2022/03/02 07:08:53;;;;;;;10.50;6.75;;;;;;;0.90;53.38;94062.88;5028126;28;20071;-73
2022/03/02 07:11:19;;;;;;;11.27;7.80;;;;;;;1.04;53.17;94079.78;5021911;28;21226;-73
2022/03/02 07:13:49;;;;;;;14.70;7.70;;;;;;;0.85;52.66;94056.78;5029762;28;20025;-72
2022/03/02 07:16:21;;;;;;;12.27;7.20;;;;;;;1.04;52.42;94063.25;5025627;28;20455;-73
2022/03/02 07:18:47;;;;;;;14.95;6.75;;;;;;;0.67;52.20;94043.00;5023960;28;20120;-72
2022/03/02 07:21:14;;;;;;;13.35;6.95;;;;;;;0.82;52.36;94059.91;5027175;28;20041;-71
2022/03/02 07:23:49;;;;;;;10.13;5.80;;;;;;;0.61;52.83;94043.19;5023285;28;20071;-71
2022/03/02 07:26:17;;;;;;;8.90;5.93;;;;;;;0.37;53.34;94047.88;5026236;28;20468;-73
2022/03/02 07:28:47;;;;;;;12.57;6.07;;;;;;;0.43;53.79;94054.78;5021125;28;20111;-71
2022/03/02 07:31:12;;;;;;;10.32;6.90;;;;;;;0.50;53.29;94063.22;5024783;28;20475;-73
2022/03/02 07:33:42;;;;;;;8.82;6.47;;;;;;;0.56;53.49;94062.25;5024403;28;20535;-70
2022/03/02 07:36:09;;;;;;;11.18;7.30;;;;;;;0.39;53.76;94053.69;5040290;28;20391;-70
2022/03/02 07:38:35;;;;;;;14.52;7.38;;;;;;;0.57;53.36;94048.13;5023381;28;20552;-71
2022/03/02 07:41:04;;;;;;;13.15;7.43;;;;;;;0.25;53.50;94014.00;5027113;28;20033;-72
2022/03/02 07:43:36;;;;;;;9.38;6.25;;;;;;;0.25;53.82;94036.78;5035357;28;20123;-71
2022/03/02 07:46:02;;;;;;;11.82;6.70;;;;;;;0.46;53.55;94050.88;5027015;28;20117;-70
2022/03/02 07:48:27;;;;;;;12.38;6.70;;;;;;;0.48;52.97;94059.28;5025063;28;20169;-70
2022/03/02 07:50:55;;;;;;;11.98;6.57;;;;;;;0.51;53.48;94053.53;5023694;28;20049;-72
2022/03/02 07:53:25;;;;;;;11.23;6.40;;;;;;;0.35;53.68;94049.94;5028014;28;20495;-69
2022/03/02 07:55:53;;;;;;;12.07;7.30;;;;;;;0.17;54.28;94045.81;5020316;28;20965;-71
2022/03/02 07:58:20;;;;;;;12.32;6.18;;;;;;;0.23;54.51;94054.53;5020921;28;20041;-71
2022/03/02 08:00:52;;;;;;;12.77;6.35;;;;;;;0.33;53.62;94031.91;5037245;28;20079;-75
2022/03/02 08:03:19;;;;;;;12.35;6.60;;;;;;;0.52;53.63;94055.91;5023070;28;20037;-74
2022/03/02 08:05:45;;;;;;;11.32;7.15;;;;;;;0.45;53.90;94042.22;5028102;28;20043;-75
2022/03/02 08:08:11;;;;;;;12.85;7.90;;;;;;;0.46;53.66;94043.81;5023164;28;20026;-75
2022/03/02 08:10:37;;;;;;;11.45;7.10;;;;;;;0.16;53.96;94025.91;5025652;28;20056;-74
2022/03/02 08:13:02;;;;;;;16.17;8.10;;;;;;;0.29;54.32;94046.50;5021506;28;20037;-73
2022/03/02 08:15:28;;;;;;;12.95;8.13;;;;;;;0.27;54.58;94053.00;5023397;28;20038;-75
2022/03/02 08:17:54;;;;;;;13.35;7.00;;;;;;;0.19;54.71;94035.91;5022759;28;20473;-72
2022/03/02 08:20:20;;;;;;;15.05;8.27;;;;;;;0.20;54.94;94018.41;5017513;28;20074;-72
2022/03/02 08:22:51;;;;;;;18.77;7.57;;;;;;;0.60;54.88;94042.38;5024536;28;20029;-74
2022/03/02 08:25:22;;;;;;;19.45;8.95;;;;;;;0.78;54.49;94049.16;5021755;28;20110;-75
2022/03/02 08:27:52;;;;;;;16.77;8.93;;;;;;;0.94;53.81;94044.81;5028701;28;20412;-74
2022/03/02 08:30:17;;;;;;;13.90;7.65;;;;;;;0.82;53.72;94029.28;5022190;28;20068;-72
2022/03/02 08:32:45;;;;;;;15.00;7.82;;;;;;;0.69;53.69;94025.22;5018938;28;20481;-75
2022/03/02 08:35:11;;;;;;;21.55;8.63;;;;;;;0.83;53.35;94030.06;5022813;28;20028;-76
2022/03/02 08:37:41;;;;;;;20.52;8.57;;;;;;;0.78;53.65;94025.59;5024519;28;20371;-75
2022/03/02 08:40:08;;;;;;;14.35;7.85;;;;;;;0.76;53.92;94032.88;5023990;28;20444;-71
2022/03/02 08:42:33;;;;;;;14.07;8.05;;;;;;;0.93;53.78;94028.34;5026208;28;20040;-75
2022/03/02 08:44:59;;;;;;;12.93;8.98;;;;;;;1.05;53.25;94025.56;5026995;28;20049;-75
2022/03/02 08:47:25;;;;;;;17.58;8.45;;;;;;;1.16;53.45;94029.84;5027181;28;20041;-73
2022/03/02 08:49:51;;;;;;;12.80;9.60;;;;;;;1.21;52.83;94022.84;5028206;28;20060;-76
2022/03/02 08:52:27;;;;;;;14.07;9.55;;;;;;;1.38;52.69;94017.44;5029908;28;20037;-76
2022/03/02 08:54:54;;;;;;;17.17;9.80;;;;;;;1.11;53.04;93985.28;5029734;28;20117;-75
2022/03/02 08:57:20;;;;;;;16.98;10.13;;;;;;;1.38;53.19;94011.41;5029761;28;20041;-73
2022/03/02 08:59:47;;;;;;;20.30;8.63;;;;;;;1.49;52.58;94003.38;5028641;28;20119;-76
2022/03/02 09:02:19;;;;;;;15.55;8.38;;;;;;;1.44;52.50;94003.34;5026728;28;20075;-75
2022/03/02 09:04:46;;;;;;;14.63;9.00;;;;;;;1.45;52.93;93993.66;5031764;28;20029;-76
2022/03/02 09:07:12;;;;;;;14.27;9.27;;;;;;;1.73;52.13;94000.38;5029419;28;20614;-73
2022/03/02 09:09:38;;;;;;;16.08;8.75;;;;;;;1.55;51.51;93986.66;5028865;28;20044;-74
2022/03/02 09:12:05;;;;;;;14.95;8.98;;;;;;;1.48;51.60;93990.53;5030673;28;20076;-76
2022/03/02 09:14:30;;;;;;;17.73;10.20;;;;;;;1.44;51.72;93971.91;5025457;28;20612;-75
2022/03/02 09:16:55;;;;;;;18.83;10.20;;;;;;;1.45;51.63;93965.63;5023378;28;20017;-75
2022/03/02 09:19:21;;;;;;;15.52;9.35;;;;;;;1.56;51.42;93993.50;5022326;28;20680;-75
2022/03/02 09:21:47;;;;;;;18.30;10.13;;;;;;;1.57;51.49;93995.03;5027266;28;20400;-76
2022/03/02 09:24:13;;;;;;;16.05;7.97;;;;;;;1.31;51.31;93967.09;5024658;28;20470;-75
2022/03/02 09:26:39;;;;;;;18.77;9.57;;;;;;;1.49;51.37;93971.94;5028589;28;21030;-75
2022/03/02 09:29:07;;;;;;;17.67;10.15;;;;;;;1.32;51.53;93981.78;5028237;28;20112;-76
2022/03/02 09:31:37;;;;;;;13.38;8.13;;;;;;;1.32;52.04;93966.06;5032415;28;20045;-76
2022/03/02 09:34:09;;;;;;;16.85;10.73;;;;;;;1.13;52.59;93951.78;5032087;28;20541;-77
2022/03/02 09:36:36;;;;;;;17.38;9.95;;;;;;;1.24;53.01;93974.38;5026884;28;20339;-76
2022/03/02 09:39:05;;;;;;;18.80;9.73;;;;;;;1.31;52.69;93974.16;5024073;28;20045;-76
2022/03/02 09:41:35;;;;;;;15.32;10.65;;;;;;;1.63;52.90;93975.69;5026272;28;20045;-72
2022/03/02 09:44:05;;;;;;;16.27;9.45;;;;;;;1.74;51.56;93966.06;5027918;28;20037;-71
2022/03/02 09:46:38;;;;;;;18.73;9.88;;;;;;;1.89;51.73;93975.88;5028179;28;20056;-72
2022/03/02 09:49:07;;;;;;;12.88;8.57;;;;;;;1.83;51.18;93959.28;5023329;28;20060;-69
2022/03/02 09:51:33;;;;;;;19.10;10.02;;;;;;;1.97;50.93;93972.75;5026479;28;20136;-70
2022/03/02 09:54:00;;;;;;;17.88;9.52;;;;;;;1.86;50.88;93950.91;5028983;28;20033;-72
2022/03/02 09:56:29;;;;;;;19.25;9.82;;;;;;;1.81;50.83;93964.00;5023803;28;20051;-70
2022/03/02 09:58:55;;;;;;;19.17;9.73;;;;;;;1.61;51.75;93943.72;5031360;28;20104;-71
2022/03/02 10:01:23;;;;;;;14.48;9.52;;;;;;;1.82;51.03;93954.28;5028299;28;20075;-72
2022/03/02 10:03:51;;;;;;;21.25;8.88;;;;;;;1.95;51.20;93959.91;5018240;28;20304;-70
2022/03/02 10:06:18;;;;;;;17.98;10.13;;;;;;;1.88;50.90;93958.53;5023533;28;20356;-71
2022/03/02 10:08:51;;;;;;;18.92;9.70;;;;;;;1.94;50.70;93954.91;5030913;28;20033;-72
2022/03/02 10:11:23;;;;;;;13.60;8.55;;;;;;;2.03;50.81;93948.13;5024008;28;20119;-71
2022/03/02 10:13:49;;;;;;;19.65;10.50;;;;;;;1.98;51.25;93942.84;5029282;28;20035;-73
2022/03/02 10:16:24;;;;;;;19.05;10.25;;;;;;;2.11;51.27;93942.38;5027544;28;20033;-71
2022/03/02 10:18:59;;;;;;;19.20;10.50;;;;;;;1.89;51.14;93945.19;5029478;28;20045;-71
2022/03/02 10:21:31;;;;;;;18.40;10.35;;;;;;;1.72;51.91;93917.53;5027955;28;20038;-74
2022/03/02 10:23:59;;;;;;;19.67;10.30;;;;;;;1.92;51.84;93943.88;5025370;28;20045;-71
2022/03/02 10:26:27;;;;;;;22.98;10.32;;;;;;;1.80;51.98;93935.41;5027240;28;20103;-72
2022/03/02 10:29:12;;;;;;;17.58;10.65;;;;;;;1.75;51.26;93917.03;5026430;28;20301;-73
2022/03/02 10:31:51;;;;;;;19.10;10.00;;;;;;;1.87;51.10;93930.72;5026077;28;20079;-73
2022/03/02 10:34:26;;;;;;;21.27;11.70;;;;;;;1.79;51.65;93924.13;5028379;28;20034;-72
2022/03/02 10:37:11;;;;;;;19.60;11.52;;;;;;;2.01;51.20;93916.88;5019688;28;20041;-73
2022/03/02 10:39:57;;;;;;;18.73;11.20;;;;;;;1.98;50.34;93912.16;5026786;28;20045;-70
2022/03/02 10:42:30;;;;;;;15.80;9.82;;;;;;;2.06;50.09;93909.03;5022590;28;20033;-72
2022/03/02 10:45:17;;;;;;;17.80;10.30;;;;;;;2.03;50.12;93908.78;5041622;28;20384;-72
2022/03/02 10:47:49;;;;;;;24.55;10.20;;;;;;;2.09;49.16;93899.88;5027653;28;20056;-72
2022/03/02 10:50:27;;;;;;;19.98;9.05;;;;;;;2.01;49.53;93901.16;5041502;28;20035;-74
2022/03/02 10:52:55;;;;;;;17.58;9.45;;;;;;;2.04;49.56;93894.63;5032736;28;20384;-73
2022/03/02 10:55:22;;;;;;;20.88;9.25;;;;;;;1.89;49.56;93874.38;5026008;28;20582;-70
2022/03/02 10:57:54;;;;;;;15.07;9.18;;;;;;;2.09;48.64;93847.41;5021118;28;20048;-70
2022/03/02 11:00:26;;;;;;;14.88;8.45;;;;;;;2.45;48.10;93883.16;5028697;28;20527;-73
2022/03/02 11:02:57;;;;;;;14.50;9.35;;;;;;;2.43;48.23;93871.34;5034288;28;20045;-72
2022/03/02 11:05:29;;;;;;;18.58;9.88;;;;;;;2.46;48.34;93860.31;5022281;28;20104;-73
2022/03/02 11:07:55;;;;;;;15.88;8.85;;;;;;;2.41;47.80;93863.72;5030780;28;20562;-71
2022/03/02 11:10:22;;;;;;;20.05;10.80;;;;;;;2.29;47.78;93867.66;5021665;28;20042;-73
2022/03/02 11:12:49;;;;;;;20.65;11.07;;;;;;;2.59;47.07;93859.03;5024291;28;20040;-70
2022/03/02 11:15:17;;;;;;;19.55;8.95;;;;;;;2.50;47.40;93861.38;5020921;28;20355;-70
2022/03/02 11:17:59;;;;;;;17.13;9.82;;;;;;;2.65;46.94;93857.97;5023488;28;20190;-71
2022/03/02 11:20:30;;;;;;;15.98;8.23;;;;;;;2.31;46.77;93821.72;5020820;28;20372;-71
2022/03/02 11:23:02;;;;;;;16.25;8.68;;;;;;;2.39;46.55;93823.84;5032680;28;20035;-72
2022/03/02 11:25:49;;;;;;;13.10;8.13;;;;;;;2.69;46.52;93844.06;5038666;28;20262;-71
2022/03/02 11:28:18;;;;;;;17.80;9.13;;;;;;;2.70;46.67;93834.31;5023571;28;20450;-73
2022/03/02 11:30:55;;;;;;;18.48;9.02;;;;;;;2.76;46.18;93828.03;5024268;28;20608;-72
2022/03/02 11:33:24;;;;;;;19.98;9.68;;;;;;;2.69;46.22;93803.91;5022699;28;20724;-71